NCAR-RAP Real-Time Weather Data

Output produced by METARs form (23 April 2019  08:12 UTC)
found at http://weather.rap.ucar.edu/surface/
 
RJCB 230800Z 20007G17KT 170V240 9999 -SHRA FEW030 SCT060 BKN080 13/M06 Q1017